createdAt,value
2022-09-17T00:00:02.069Z,46
2022-09-17T00:05:02.020Z,99
2022-09-17T00:10:02.177Z,99
2022-09-17T00:15:02.093Z,184
2022-09-17T00:20:02.090Z,201
2022-09-17T00:25:02.031Z,218
2022-09-17T00:30:02.055Z,104
2022-09-17T00:35:02.247Z,227
2022-09-17T00:40:02.306Z,249
2022-09-17T00:45:02.246Z,255
2022-09-17T00:50:02.202Z,244
2022-09-17T00:55:02.159Z,232
2022-09-17T01:00:02.029Z,220
2022-09-17T01:05:02.086Z,219
2022-09-17T01:10:02.214Z,217
2022-09-17T01:15:02.176Z,213
2022-09-17T01:20:02.164Z,172
2022-09-17T01:25:02.118Z,155
2022-09-17T01:30:02.089Z,27
2022-09-17T01:35:02.178Z,126
2022-09-17T01:40:02.139Z,33
2022-09-17T01:45:02.045Z,110
2022-09-17T01:50:02.051Z,152
2022-09-17T01:55:02.039Z,15
2022-09-17T02:00:02.018Z,82
2022-09-17T02:05:02.078Z,74
2022-09-17T02:10:02.212Z,19
2022-09-17T02:15:02.217Z,25
2022-09-17T02:20:02.145Z,26
2022-09-17T02:25:02.216Z,26
2022-09-17T02:30:02.039Z,29
2022-09-17T02:35:02.149Z,30
2022-09-17T02:40:02.229Z,24
2022-09-17T02:45:02.037Z,30
2022-09-17T02:50:02.029Z,29
2022-09-17T02:55:01.975Z,31
2022-09-17T03:00:01.988Z,32
2022-09-17T03:05:02.023Z,34
2022-09-17T03:10:02.006Z,40
2022-09-17T03:15:02.078Z,35
2022-09-17T03:20:02.156Z,36
2022-09-17T03:25:02.155Z,39
2022-09-17T03:30:02.170Z,38
2022-09-17T03:35:02.086Z,40
2022-09-17T03:40:02.200Z,39
2022-09-17T03:45:02.085Z,36
2022-09-17T03:50:02.077Z,37
2022-09-17T03:55:02.173Z,38
2022-09-17T04:00:02.139Z,61
2022-09-17T04:05:02.201Z,6
2022-09-17T04:10:02.056Z,97
2022-09-17T04:15:02.250Z,31
2022-09-17T04:20:02.120Z,34
2022-09-17T04:25:02.130Z,33
2022-09-17T04:30:02.313Z,33
2022-09-17T04:35:02.282Z,29
2022-09-17T04:40:07.033Z,25
2022-09-17T04:45:02.253Z,22
2022-09-17T04:50:02.374Z,11
2022-09-17T04:55:02.208Z,6
2022-09-17T05:00:02.170Z,3
2022-09-17T05:05:01.503Z,3
2022-09-17T05:10:01.535Z,3
2022-09-17T05:15:01.578Z,1
2022-09-17T05:20:01.627Z,1
2022-09-17T05:25:01.774Z,0
2022-09-17T05:30:01.626Z,0
2022-09-17T05:35:05.375Z,3
2022-09-17T05:40:02.450Z,0
2022-09-17T05:45:02.382Z,1
2022-09-17T05:50:02.362Z,1
2022-09-17T05:55:02.368Z,0
2022-09-17T06:00:02.242Z,1
2022-09-17T06:05:02.427Z,3
2022-09-17T06:10:01.530Z,6
2022-09-17T06:15:01.477Z,5
2022-09-17T06:20:01.516Z,3
2022-09-17T06:25:01.498Z,3
2022-09-17T06:30:01.614Z,8
2022-09-17T06:35:01.496Z,23
2022-09-17T06:40:01.768Z,10
2022-09-17T06:45:06.956Z,17
2022-09-17T06:50:02.037Z,38
2022-09-17T06:55:02.086Z,43
2022-09-17T07:00:02.229Z,40
2022-09-17T07:05:01.408Z,13
2022-09-17T07:10:01.544Z,13
2022-09-17T07:15:01.459Z,131
2022-09-17T07:20:01.733Z,11
2022-09-17T07:25:01.815Z,48
2022-09-17T07:30:01.987Z,32
2022-09-17T07:35:01.903Z,31
2022-09-17T07:40:02.232Z,39
2022-09-17T07:45:02.469Z,43
2022-09-17T07:50:02.137Z,42
2022-09-17T07:55:02.185Z,42
2022-09-17T08:00:02.101Z,18
2022-09-17T08:05:01.588Z,3
2022-09-17T08:10:02.088Z,3
2022-09-17T08:15:01.574Z,3
2022-09-17T08:20:02.124Z,3
2022-09-17T08:25:01.474Z,4
2022-09-17T08:30:01.949Z,2
2022-09-17T08:35:01.433Z,2
2022-09-17T08:40:02.037Z,3
2022-09-17T08:45:01.590Z,4
2022-09-17T08:50:02.058Z,0
2022-09-17T08:55:01.567Z,0
2022-09-17T09:00:02.036Z,0
2022-09-17T09:05:01.535Z,2
2022-09-17T09:10:02.044Z,1
2022-09-17T09:15:01.525Z,2
2022-09-17T09:20:02.081Z,2
2022-09-17T09:25:01.430Z,3
2022-09-17T09:30:01.930Z,3
2022-09-17T09:35:01.437Z,2
2022-09-17T09:40:02.017Z,3
2022-09-17T09:45:04.957Z,1
2022-09-17T09:50:01.650Z,2
2022-09-17T09:55:02.004Z,0
2022-09-17T10:00:01.535Z,17
2022-09-17T10:05:01.882Z,8
2022-09-17T10:10:02.390Z,8
2022-09-17T10:15:01.794Z,9
2022-09-17T10:20:01.657Z,7
2022-09-17T10:25:02.131Z,9
2022-09-17T10:30:01.623Z,4
2022-09-17T10:35:02.104Z,8
2022-09-17T10:40:01.550Z,8
2022-09-17T10:45:01.946Z,7
2022-09-17T10:50:02.416Z,6
2022-09-17T10:55:01.766Z,7
2022-09-17T11:00:02.248Z,8
2022-09-17T11:05:01.590Z,5
2022-09-17T11:10:02.096Z,6
2022-09-17T11:15:01.567Z,7
2022-09-17T11:20:02.060Z,4
2022-09-17T11:25:01.541Z,5
2022-09-17T11:30:02.016Z,5
2022-09-17T11:35:01.497Z,5
2022-09-17T11:40:02.089Z,6
2022-09-17T11:45:01.530Z,10
2022-09-17T11:50:01.883Z,9
2022-09-17T11:55:02.341Z,8
2022-09-17T12:00:01.703Z,5
2022-09-17T12:05:02.050Z,6
2022-09-17T12:10:01.435Z,5
2022-09-17T12:15:01.774Z,6
2022-09-17T12:20:02.187Z,6
2022-09-17T12:25:01.526Z,4
2022-09-17T12:30:01.877Z,4
2022-09-17T12:35:02.241Z,4
2022-09-17T12:40:01.783Z,6
2022-09-17T12:45:02.304Z,3
2022-09-17T12:50:01.772Z,3
2022-09-17T12:55:02.238Z,4
2022-09-17T13:00:06.797Z,4
2022-09-17T13:05:02.511Z,5
2022-09-17T13:10:01.937Z,2
2022-09-17T13:15:02.420Z,3
2022-09-17T13:20:01.972Z,2
2022-09-17T13:25:01.382Z,4
2022-09-17T13:30:01.574Z,3
2022-09-17T13:35:01.602Z,3
2022-09-17T13:40:01.666Z,5
2022-09-17T13:45:01.757Z,3
2022-09-17T13:50:01.614Z,3
2022-09-17T13:55:01.567Z,3
2022-09-17T14:00:01.581Z,5
2022-09-17T14:05:02.083Z,3
2022-09-17T14:10:02.284Z,4
2022-09-17T14:15:02.450Z,2
2022-09-17T14:20:01.401Z,2
2022-09-17T14:25:01.527Z,5
2022-09-17T14:30:01.636Z,3
2022-09-17T14:35:01.763Z,3
2022-09-17T14:40:01.880Z,4
2022-09-17T14:45:01.775Z,3
2022-09-17T14:50:01.920Z,3
2022-09-17T14:55:01.967Z,3
2022-09-17T15:00:01.843Z,5
2022-09-17T15:05:02.122Z,4
2022-09-17T15:10:02.184Z,6
2022-09-17T15:15:02.405Z,5
2022-09-17T15:20:01.396Z,6
2022-09-17T15:25:01.502Z,5
2022-09-17T15:30:01.470Z,7
2022-09-17T15:35:01.506Z,6
2022-09-17T15:40:01.672Z,7
2022-09-17T15:45:01.641Z,7
2022-09-17T15:50:01.711Z,12
2022-09-17T15:55:01.745Z,15
2022-09-17T16:00:01.765Z,24
2022-09-17T16:05:01.738Z,27
2022-09-17T16:10:01.758Z,31
2022-09-17T16:15:02.177Z,36
2022-09-17T16:20:06.038Z,43
2022-09-17T16:25:01.723Z,54
2022-09-17T16:30:01.794Z,44
2022-09-17T16:35:01.775Z,61
2022-09-17T16:40:02.154Z,76
2022-09-17T16:45:02.026Z,68
2022-09-17T16:50:02.093Z,79
2022-09-17T16:55:02.036Z,81
2022-09-17T17:00:02.069Z,12
2022-09-17T17:05:02.035Z,50
2022-09-17T17:10:02.194Z,147
2022-09-17T17:15:02.190Z,13
2022-09-17T17:20:02.390Z,162
2022-09-17T17:25:02.255Z,173
2022-09-17T17:30:01.365Z,14
2022-09-17T17:35:01.473Z,96
2022-09-17T17:40:01.580Z,146
2022-09-17T17:45:01.573Z,7
2022-09-17T17:50:01.709Z,147
2022-09-17T17:55:01.722Z,32
2022-09-17T18:00:01.762Z,162
2022-09-17T18:05:04.294Z,65
2022-09-17T18:10:02.084Z,144
2022-09-17T18:15:02.185Z,30
2022-09-17T18:20:02.326Z,56
2022-09-17T18:25:02.321Z,51
2022-09-17T18:30:02.345Z,17
2022-09-17T18:35:02.227Z,17
2022-09-17T18:40:02.477Z,144
2022-09-17T18:45:02.399Z,21
2022-09-17T18:50:02.380Z,30
2022-09-17T18:55:02.235Z,142
2022-09-17T19:00:02.397Z,75
2022-09-17T19:05:01.558Z,35
2022-09-17T19:10:01.628Z,142
2022-09-17T19:15:01.696Z,43
2022-09-17T19:20:01.915Z,12
2022-09-17T19:25:01.926Z,150
2022-09-17T19:30:01.934Z,8
2022-09-17T19:35:02.078Z,4
2022-09-17T19:40:02.099Z,77
2022-09-17T19:45:02.053Z,69
2022-09-17T19:50:02.140Z,100
2022-09-17T19:55:02.403Z,79
2022-09-17T20:00:02.320Z,97
2022-09-17T20:05:01.509Z,170
2022-09-17T20:10:01.610Z,170
2022-09-17T20:15:01.763Z,55
2022-09-17T20:20:01.913Z,25
2022-09-17T20:25:01.847Z,9
2022-09-17T20:30:02.008Z,6
2022-09-17T20:35:02.011Z,3
2022-09-17T20:40:02.102Z,2
2022-09-17T20:45:02.179Z,3
2022-09-17T20:50:02.122Z,17
2022-09-17T20:55:01.984Z,43
2022-09-17T21:00:02.152Z,8
2022-09-17T21:05:02.401Z,25
2022-09-17T21:10:02.392Z,24
2022-09-17T21:15:02.425Z,24
2022-09-17T21:20:01.580Z,179
2022-09-17T21:25:01.526Z,174
2022-09-17T21:30:01.541Z,50
2022-09-17T21:35:01.610Z,50
2022-09-17T21:40:01.781Z,24
2022-09-17T21:45:01.571Z,66
2022-09-17T21:50:01.686Z,36
2022-09-17T21:55:01.574Z,20
2022-09-17T22:00:01.838Z,52
2022-09-17T22:05:01.736Z,9
2022-09-17T22:10:01.991Z,8
2022-09-17T22:15:01.914Z,14
2022-09-17T22:20:01.789Z,32
2022-09-17T22:25:01.752Z,19
2022-09-17T22:30:01.754Z,14
2022-09-17T22:35:01.815Z,26
2022-09-17T22:40:01.796Z,15
2022-09-17T22:45:01.954Z,13
2022-09-17T22:50:01.803Z,31
2022-09-17T22:55:01.889Z,46
2022-09-17T23:00:01.763Z,35
2022-09-17T23:05:01.838Z,15
2022-09-17T23:10:01.873Z,40
2022-09-17T23:15:01.879Z,13
2022-09-17T23:20:02.030Z,14
2022-09-17T23:25:01.876Z,43
2022-09-17T23:30:01.857Z,11
2022-09-17T23:35:01.858Z,47
2022-09-17T23:40:01.919Z,22
2022-09-17T23:45:01.984Z,4
2022-09-17T23:50:01.969Z,42
2022-09-17T23:55:01.950Z,22
